Meteo Giornale » Osservazioni meteo Canada » Pincher Creek
ore: 12:00 - Osservazioni Meteo Pincher Creek
Lat. 49° 31' N Lon. 113° 59' W Alt. 1190 metri s.l.m.
23 °C
Sereno
Temp. 24 Ore
5 °C
23 °C
Nord
5.5 Km/h
Dew point 5 °C
Umidità 31 %
Visibilità 14 Km
Il sole sorge alle ore 06:52
Il sole tramonta alle ore 20:19
| Data e Ora | Cielo e Fenomeni | T °C | DP °C | Um. % | Pres. hPa | Vis. km | Vento km/h | |
|---|---|---|---|---|---|---|---|---|
| Oggi h: 12:00 | Sereno | 23 | 5 | 31 | 1011 | 14 | N 5.5 | |
| Oggi h: 11:00 | Poco Nuvoloso | 20 | 6 | 39 | 1012 | 14 | N 5.5 | |
| Oggi h: 10:00 | Sereno | 17 | 7 | 51 | 1012 | 14 | O/NO 13 | |
| Oggi h: 09:00 | Sereno | 11 | 5 | 66 | 1013 | 14 | O 11.1 | |
| Oggi h: 08:00 | Sereno | 7 | 4 | 81 | 1013 | 14 | O 13 | |
| Oggi h: 07:00 | Sereno | 5 | 4 | 93 | 1013 | 14 | O 13 | |
| Oggi h: 06:00 | Sereno | 6 | 3 | 81 | 1013 | 14 | O 9.3 | |
| Oggi h: 05:00 | Sereno | 7 | 4 | 81 | 1013 | 14 | O 11.1 | |
| Oggi h: 04:00 | Sereno | 9 | 4 | 70 | 1013 | 14 | O 14.8 | |
| Oggi h: 03:00 | Sereno | 9 | 5 | 75 | 1013 | 14 | O/SO 20.3 | |
| Oggi h: 02:00 | Sereno | 8 | 5 | 81 | 1013 | 14 | O/SO 16.7 | |
| Oggi h: 01:00 | Sereno | 10 | 5 | 71 | 1014 | 14 | N 0 | |
| Oggi h: 00:00 | Sereno | 11 | 5 | 66 | 1014 | 14 | N 7.4 | |
| Ieri h: 23:00 | Sereno | 13 | 5 | 58 | 1014 | 14 | N 0 | |
| Ieri h: 22:00 | Sereno | 14 | 5 | 54 | 1014 | 14 | O 9.3 | |
| Ieri h: 21:00 | Sereno | 15 | 5 | 51 | 1014 | 14 | S 7.4 | |
| Ieri h: 20:00 | Sereno | 18 | 5 | 42 | 1013 | 14 | O/SO 20.3 | |
| Ieri h: 19:00 | Sereno | 21 | 5 | 35 | 1013 | 14 | O 24 | |
| Ieri h: 18:00 | Sereno | 22 | 5 | 32 | 1013 | 14 | O 24 | |
| Ieri h: 17:00 | Sereno | 23 | 5 | 31 | 1014 | 14 | O 24 | |
| Ieri h: 16:00 | Sereno | 22 | 5 | 32 | 1014 | 14 | S/SO 16.7 | |
| Ieri h: 15:00 | Sereno | 22 | 5 | 32 | 1014 | 14 | O/SO 25.9 | |
| Ieri h: 14:00 | Sereno | 21 | 5 | 35 | 1015 | 14 | O/SO 24 | |
| Ieri h: 13:00 | Sereno | 20 | 5 | 37 | 1016 | 14 | O 24 | |



